sensor_id;sensor_type;location;lat;lon;timestamp;P1;durP1;ratioP1;P2;durP2;ratioP2
38879;SDS011;25887;30.194;-97.880;2023-07-13T00:01:04;3.72;;;1.42;;
38879;SDS011;25887;30.194;-97.880;2023-07-13T00:03:31;4.97;;;1.20;;
38879;SDS011;25887;30.194;-97.880;2023-07-13T00:06:00;3.85;;;1.50;;
38879;SDS011;25887;30.194;-97.880;2023-07-13T00:08:29;4.13;;;1.50;;
38879;SDS011;25887;30.194;-97.880;2023-07-13T00:10:58;3.40;;;1.52;;
38879;SDS011;25887;30.194;-97.880;2023-07-13T00:13:30;3.80;;;1.48;;
38879;SDS011;25887;30.194;-97.880;2023-07-13T00:15:57;2.63;;;1.50;;
38879;SDS011;25887;30.194;-97.880;2023-07-13T00:18:29;3.60;;;1.42;;
38879;SDS011;25887;30.194;-97.880;2023-07-13T00:20:55;2.78;;;1.35;;
38879;SDS011;25887;30.194;-97.880;2023-07-13T00:23:30;3.05;;;1.58;;
38879;SDS011;25887;30.194;-97.880;2023-07-13T00:25:59;3.33;;;1.40;;
38879;SDS011;25887;30.194;-97.880;2023-07-13T00:28:27;4.47;;;1.50;;
38879;SDS011;25887;30.194;-97.880;2023-07-13T00:30:54;3.33;;;1.23;;
38879;SDS011;25887;30.194;-97.880;2023-07-13T00:33:22;3.05;;;1.40;;
38879;SDS011;25887;30.194;-97.880;2023-07-13T00:35:49;3.42;;;1.30;;
38879;SDS011;25887;30.194;-97.880;2023-07-13T00:38:15;3.28;;;1.38;;
38879;SDS011;25887;30.194;-97.880;2023-07-13T00:40:42;2.15;;;1.25;;
38879;SDS011;25887;30.194;-97.880;2023-07-13T00:43:27;3.28;;;1.45;;
38879;SDS011;25887;30.194;-97.880;2023-07-13T00:48:34;2.20;;;1.35;;
38879;SDS011;25887;30.194;-97.880;2023-07-13T00:51:02;4.80;;;1.38;;
38879;SDS011;25887;30.194;-97.880;2023-07-13T00:53:29;2.75;;;1.25;;
38879;SDS011;25887;30.194;-97.880;2023-07-13T00:55:58;4.97;;;1.38;;
38879;SDS011;25887;30.194;-97.880;2023-07-13T00:58:25;1.65;;;1.35;;
38879;SDS011;25887;30.194;-97.880;2023-07-13T01:00:52;1.27;;;1.02;;
38879;SDS011;25887;30.194;-97.880;2023-07-13T01:03:19;3.75;;;1.30;;
38879;SDS011;25887;30.194;-97.880;2023-07-13T01:05:46;1.85;;;1.25;;
38879;SDS011;25887;30.194;-97.880;2023-07-13T01:08:14;2.97;;;1.30;;
38879;SDS011;25887;30.194;-97.880;2023-07-13T01:10:50;2.67;;;1.17;;
38879;SDS011;25887;30.194;-97.880;2023-07-13T01:13:20;4.57;;;1.50;;
38879;SDS011;25887;30.194;-97.880;2023-07-13T01:15:47;4.57;;;1.30;;
38879;SDS011;25887;30.194;-97.880;2023-07-13T01:18:17;4.40;;;1.30;;
38879;SDS011;25887;30.194;-97.880;2023-07-13T01:20:50;2.75;;;1.30;;
38879;SDS011;25887;30.194;-97.880;2023-07-13T01:23:27;4.85;;;1.20;;
38879;SDS011;25887;30.194;-97.880;2023-07-13T01:25:55;3.45;;;1.42;;
38879;SDS011;25887;30.194;-97.880;2023-07-13T01:28:22;4.78;;;1.35;;
38879;SDS011;25887;30.194;-97.880;2023-07-13T01:30:52;6.03;;;1.55;;
38879;SDS011;25887;30.194;-97.880;2023-07-13T01:33:20;3.17;;;1.50;;
38879;SDS011;25887;30.194;-97.880;2023-07-13T01:35:47;4.45;;;1.30;;
38879;SDS011;25887;30.194;-97.880;2023-07-13T01:38:16;3.95;;;1.40;;
38879;SDS011;25887;30.194;-97.880;2023-07-13T01:40:53;5.18;;;1.17;;
38879;SDS011;25887;30.194;-97.880;2023-07-13T01:43:19;3.88;;;1.35;;
38879;SDS011;25887;30.194;-97.880;2023-07-13T01:45:46;6.32;;;1.40;;
38879;SDS011;25887;30.194;-97.880;2023-07-13T01:48:13;5.97;;;1.20;;
38879;SDS011;25887;30.194;-97.880;2023-07-13T01:50:39;2.45;;;1.17;;
38879;SDS011;25887;30.194;-97.880;2023-07-13T01:53:05;2.13;;;0.88;;
38879;SDS011;25887;30.194;-97.880;2023-07-13T01:55:32;2.63;;;1.17;;
38879;SDS011;25887;30.194;-97.880;2023-07-13T01:57:58;2.20;;;1.20;;
38879;SDS011;25887;30.194;-97.880;2023-07-13T02:00:26;6.68;;;1.38;;
38879;SDS011;25887;30.194;-97.880;2023-07-13T02:02:54;6.55;;;1.38;;
38879;SDS011;25887;30.194;-97.880;2023-07-13T02:05:20;5.43;;;1.10;;
38879;SDS011;25887;30.194;-97.880;2023-07-13T02:07:46;7.30;;;1.60;;
38879;SDS011;25887;30.194;-97.880;2023-07-13T02:10:12;3.35;;;1.38;;
38879;SDS011;25887;30.194;-97.880;2023-07-13T02:12:39;2.50;;;1.45;;
38879;SDS011;25887;30.194;-97.880;2023-07-13T02:15:06;9.65;;;1.50;;
38879;SDS011;25887;30.194;-97.880;2023-07-13T02:17:34;3.08;;;1.60;;
38879;SDS011;25887;30.194;-97.880;2023-07-13T02:20:01;3.78;;;1.15;;
38879;SDS011;25887;30.194;-97.880;2023-07-13T02:22:32;5.60;;;1.33;;
38879;SDS011;25887;30.194;-97.880;2023-07-13T02:24:58;7.78;;;1.55;;
38879;SDS011;25887;30.194;-97.880;2023-07-13T02:27:25;4.75;;;1.48;;
38879;SDS011;25887;30.194;-97.880;2023-07-13T02:29:51;3.03;;;1.35;;
38879;SDS011;25887;30.194;-97.880;2023-07-13T02:32:18;4.63;;;1.48;;
38879;SDS011;25887;30.194;-97.880;2023-07-13T02:34:44;6.82;;;1.80;;
38879;SDS011;25887;30.194;-97.880;2023-07-13T02:40:35;8.68;;;1.60;;
38879;SDS011;25887;30.194;-97.880;2023-07-13T02:43:02;9.05;;;1.60;;
38879;SDS011;25887;30.194;-97.880;2023-07-13T02:45:29;1.65;;;1.15;;
38879;SDS011;25887;30.194;-97.880;2023-07-13T02:47:55;4.25;;;1.13;;
38879;SDS011;25887;30.194;-97.880;2023-07-13T02:50:22;4.93;;;1.40;;
38879;SDS011;25887;30.194;-97.880;2023-07-13T02:52:48;7.90;;;1.05;;
38879;SDS011;25887;30.194;-97.880;2023-07-13T02:55:14;7.40;;;1.27;;
38879;SDS011;25887;30.194;-97.880;2023-07-13T02:57:40;2.88;;;1.30;;
38879;SDS011;25887;30.194;-97.880;2023-07-13T03:00:07;7.63;;;1.88;;
38879;SDS011;25887;30.194;-97.880;2023-07-13T03:02:34;4.43;;;1.20;;
38879;SDS011;25887;30.194;-97.880;2023-07-13T03:05:16;7.63;;;1.38;;
38879;SDS011;25887;30.194;-97.880;2023-07-13T03:07:42;9.98;;;1.63;;
38879;SDS011;25887;30.194;-97.880;2023-07-13T03:10:09;6.50;;;1.40;;
38879;SDS011;25887;30.194;-97.880;2023-07-13T03:12:40;1.45;;;1.05;;
38879;SDS011;25887;30.194;-97.880;2023-07-13T03:15:07;8.23;;;1.10;;
38879;SDS011;25887;30.194;-97.880;2023-07-13T03:17:33;5.53;;;1.10;;
38879;SDS011;25887;30.194;-97.880;2023-07-13T03:20:13;5.18;;;1.50;;
38879;SDS011;25887;30.194;-97.880;2023-07-13T03:22:39;6.60;;;1.83;;
38879;SDS011;25887;30.194;-97.880;2023-07-13T03:25:06;4.15;;;1.27;;
38879;SDS011;25887;30.194;-97.880;2023-07-13T03:27:32;15.57;;;1.45;;
38879;SDS011;25887;30.194;-97.880;2023-07-13T03:29:58;5.68;;;1.20;;
38879;SDS011;25887;30.194;-97.880;2023-07-13T03:32:25;3.55;;;1.55;;
38879;SDS011;25887;30.194;-97.880;2023-07-13T03:34:51;4.80;;;1.45;;
38879;SDS011;25887;30.194;-97.880;2023-07-13T03:37:19;2.33;;;0.93;;
38879;SDS011;25887;30.194;-97.880;2023-07-13T03:39:46;5.70;;;1.48;;
38879;SDS011;25887;30.194;-97.880;2023-07-13T03:45:07;4.45;;;1.13;;
38879;SDS011;25887;30.194;-97.880;2023-07-13T03:47:35;6.00;;;1.17;;
38879;SDS011;25887;30.194;-97.880;2023-07-13T03:50:01;6.78;;;1.70;;
38879;SDS011;25887;30.194;-97.880;2023-07-13T03:52:28;3.70;;;1.13;;
38879;SDS011;25887;30.194;-97.880;2023-07-13T03:54:59;2.60;;;1.00;;
38879;SDS011;25887;30.194;-97.880;2023-07-13T03:57:26;3.15;;;1.40;;
38879;SDS011;25887;30.194;-97.880;2023-07-13T03:59:52;7.80;;;0.98;;
38879;SDS011;25887;30.194;-97.880;2023-07-13T04:02:19;4.85;;;1.27;;
38879;SDS011;25887;30.194;-97.880;2023-07-13T04:04:47;5.10;;;1.55;;
38879;SDS011;25887;30.194;-97.880;2023-07-13T04:07:13;4.53;;;1.17;;
38879;SDS011;25887;30.194;-97.880;2023-07-13T04:09:39;6.28;;;1.20;;
38879;SDS011;25887;30.194;-97.880;2023-07-13T04:12:06;5.25;;;1.45;;
38879;SDS011;25887;30.194;-97.880;2023-07-13T04:14:32;4.18;;;1.25;;
38879;SDS011;25887;30.194;-97.880;2023-07-13T04:19:48;3.70;;;0.88;;
38879;SDS011;25887;30.194;-97.880;2023-07-13T04:22:15;7.15;;;1.10;;
38879;SDS011;25887;30.194;-97.880;2023-07-13T04:24:45;4.43;;;1.20;;
38879;SDS011;25887;30.194;-97.880;2023-07-13T04:27:11;4.97;;;1.10;;
38879;SDS011;25887;30.194;-97.880;2023-07-13T04:29:37;6.35;;;1.58;;
38879;SDS011;25887;30.194;-97.880;2023-07-13T04:32:04;5.20;;;1.17;;
38879;SDS011;25887;30.194;-97.880;2023-07-13T04:34:30;6.35;;;1.20;;
38879;SDS011;25887;30.194;-97.880;2023-07-13T04:36:56;6.55;;;1.42;;
38879;SDS011;25887;30.194;-97.880;2023-07-13T04:39:22;5.88;;;1.27;;
38879;SDS011;25887;30.194;-97.880;2023-07-13T04:42:01;7.70;;;1.60;;
38879;SDS011;25887;30.194;-97.880;2023-07-13T04:44:27;5.88;;;1.20;;
38879;SDS011;25887;30.194;-97.880;2023-07-13T04:46:53;7.47;;;1.65;;
38879;SDS011;25887;30.194;-97.880;2023-07-13T04:49:37;5.57;;;1.27;;
38879;SDS011;25887;30.194;-97.880;2023-07-13T04:54:36;4.20;;;1.17;;
38879;SDS011;25887;30.194;-97.880;2023-07-13T04:57:03;4.87;;;1.10;;
38879;SDS011;25887;30.194;-97.880;2023-07-13T04:59:33;6.53;;;1.42;;
38879;SDS011;25887;30.194;-97.880;2023-07-13T05:01:59;4.75;;;1.38;;
38879;SDS011;25887;30.194;-97.880;2023-07-13T05:04:27;5.93;;;1.20;;
38879;SDS011;25887;30.194;-97.880;2023-07-13T05:06:53;5.72;;;1.20;;
38879;SDS011;25887;30.194;-97.880;2023-07-13T05:09:19;4.90;;;1.17;;
38879;SDS011;25887;30.194;-97.880;2023-07-13T05:11:45;11.07;;;1.85;;
38879;SDS011;25887;30.194;-97.880;2023-07-13T05:14:11;4.05;;;0.98;;
38879;SDS011;25887;30.194;-97.880;2023-07-13T05:16:40;8.50;;;1.98;;
38879;SDS011;25887;30.194;-97.880;2023-07-13T05:19:25;3.70;;;1.42;;
38879;SDS011;25887;30.194;-97.880;2023-07-13T05:21:53;4.05;;;1.48;;
38879;SDS011;25887;30.194;-97.880;2023-07-13T05:24:19;8.05;;;1.27;;
38879;SDS011;25887;30.194;-97.880;2023-07-13T05:26:45;3.47;;;1.17;;
38879;SDS011;25887;30.194;-97.880;2023-07-13T05:29:12;6.30;;;1.10;;
38879;SDS011;25887;30.194;-97.880;2023-07-13T05:31:38;7.72;;;1.30;;
38879;SDS011;25887;30.194;-97.880;2023-07-13T05:34:06;1.98;;;0.95;;
38879;SDS011;25887;30.194;-97.880;2023-07-13T05:36:35;4.75;;;1.50;;
38879;SDS011;25887;30.194;-97.880;2023-07-13T05:39:02;5.32;;;1.20;;
38879;SDS011;25887;30.194;-97.880;2023-07-13T05:41:29;5.05;;;1.25;;
38879;SDS011;25887;30.194;-97.880;2023-07-13T05:44:04;4.07;;;1.20;;
38879;SDS011;25887;30.194;-97.880;2023-07-13T05:46:30;8.23;;;1.30;;
38879;SDS011;25887;30.194;-97.880;2023-07-13T05:48:56;3.78;;;1.13;;
38879;SDS011;25887;30.194;-97.880;2023-07-13T05:51:23;9.32;;;1.38;;
38879;SDS011;25887;30.194;-97.880;2023-07-13T05:53:49;6.45;;;1.20;;
38879;SDS011;25887;30.194;-97.880;2023-07-13T05:56:15;7.13;;;1.23;;
38879;SDS011;25887;30.194;-97.880;2023-07-13T05:58:41;4.35;;;1.52;;
38879;SDS011;25887;30.194;-97.880;2023-07-13T06:01:12;8.45;;;1.20;;
38879;SDS011;25887;30.194;-97.880;2023-07-13T06:03:40;8.82;;;1.38;;
38879;SDS011;25887;30.194;-97.880;2023-07-13T06:06:09;5.30;;;1.13;;
38879;SDS011;25887;30.194;-97.880;2023-07-13T06:08:36;4.50;;;1.80;;
38879;SDS011;25887;30.194;-97.880;2023-07-13T06:11:22;5.43;;;1.20;;
38879;SDS011;25887;30.194;-97.880;2023-07-13T06:13:51;4.78;;;1.27;;
38879;SDS011;25887;30.194;-97.880;2023-07-13T06:16:17;5.15;;;1.33;;
38879;SDS011;25887;30.194;-97.880;2023-07-13T06:18:43;5.80;;;1.40;;
38879;SDS011;25887;30.194;-97.880;2023-07-13T06:21:11;8.95;;;2.10;;
38879;SDS011;25887;30.194;-97.880;2023-07-13T06:23:42;7.80;;;1.30;;
38879;SDS011;25887;30.194;-97.880;2023-07-13T06:26:08;4.28;;;1.27;;
38879;SDS011;25887;30.194;-97.880;2023-07-13T06:28:36;5.93;;;1.33;;
38879;SDS011;25887;30.194;-97.880;2023-07-13T06:31:06;4.10;;;1.10;;
38879;SDS011;25887;30.194;-97.880;2023-07-13T06:33:33;3.67;;;1.70;;
38879;SDS011;25887;30.194;-97.880;2023-07-13T06:36:00;5.68;;;1.35;;
38879;SDS011;25887;30.194;-97.880;2023-07-13T06:38:28;6.75;;;1.00;;
38879;SDS011;25887;30.194;-97.880;2023-07-13T06:40:56;5.00;;;1.40;;
38879;SDS011;25887;30.194;-97.880;2023-07-13T06:43:22;3.20;;;1.05;;
38879;SDS011;25887;30.194;-97.880;2023-07-13T06:45:50;3.30;;;1.20;;
38879;SDS011;25887;30.194;-97.880;2023-07-13T06:48:17;4.22;;;1.60;;
38879;SDS011;25887;30.194;-97.880;2023-07-13T06:50:45;4.78;;;0.98;;
38879;SDS011;25887;30.194;-97.880;2023-07-13T06:53:12;2.78;;;1.42;;
38879;SDS011;25887;30.194;-97.880;2023-07-13T06:55:56;8.55;;;1.38;;
38879;SDS011;25887;30.194;-97.880;2023-07-13T06:58:24;3.33;;;0.77;;
38879;SDS011;25887;30.194;-97.880;2023-07-13T07:00:51;4.90;;;1.17;;
38879;SDS011;25887;30.194;-97.880;2023-07-13T07:03:18;7.68;;;1.40;;
38879;SDS011;25887;30.194;-97.880;2023-07-13T07:05:44;6.43;;;1.30;;
38879;SDS011;25887;30.194;-97.880;2023-07-13T07:08:20;4.13;;;0.90;;
38879;SDS011;25887;30.194;-97.880;2023-07-13T07:10:46;3.58;;;0.90;;
38879;SDS011;25887;30.194;-97.880;2023-07-13T07:13:34;7.18;;;1.25;;
38879;SDS011;25887;30.194;-97.880;2023-07-13T07:16:00;5.82;;;1.67;;
38879;SDS011;25887;30.194;-97.880;2023-07-13T07:18:27;7.25;;;1.35;;
38879;SDS011;25887;30.194;-97.880;2023-07-13T07:20:53;7.45;;;1.60;;
38879;SDS011;25887;30.194;-97.880;2023-07-13T07:23:19;6.65;;;1.52;;
38879;SDS011;25887;30.194;-97.880;2023-07-13T07:25:45;4.05;;;1.40;;
38879;SDS011;25887;30.194;-97.880;2023-07-13T07:28:12;6.70;;;1.83;;
38879;SDS011;25887;30.194;-97.880;2023-07-13T07:30:53;4.43;;;1.88;;
38879;SDS011;25887;30.194;-97.880;2023-07-13T07:33:21;10.45;;;1.45;;
38879;SDS011;25887;30.194;-97.880;2023-07-13T07:35:49;5.88;;;1.60;;
38879;SDS011;25887;30.194;-97.880;2023-07-13T07:38:16;5.22;;;1.67;;
38879;SDS011;25887;30.194;-97.880;2023-07-13T07:43:46;3.33;;;1.35;;
38879;SDS011;25887;30.194;-97.880;2023-07-13T07:46:13;5.85;;;1.48;;
38879;SDS011;25887;30.194;-97.880;2023-07-13T07:48:39;5.18;;;1.00;;
38879;SDS011;25887;30.194;-97.880;2023-07-13T07:51:08;4.53;;;1.42;;
38879;SDS011;25887;30.194;-97.880;2023-07-13T07:53:34;3.63;;;1.30;;
38879;SDS011;25887;30.194;-97.880;2023-07-13T07:56:02;3.53;;;1.65;;
38879;SDS011;25887;30.194;-97.880;2023-07-13T07:58:29;6.97;;;1.70;;
38879;SDS011;25887;30.194;-97.880;2023-07-13T08:01:01;7.10;;;1.67;;
38879;SDS011;25887;30.194;-97.880;2023-07-13T08:03:33;4.35;;;1.17;;
38879;SDS011;25887;30.194;-97.880;2023-07-13T08:06:01;7.80;;;1.85;;
38879;SDS011;25887;30.194;-97.880;2023-07-13T08:08:27;8.05;;;1.40;;
38879;SDS011;25887;30.194;-97.880;2023-07-13T08:10:53;7.32;;;2.65;;
38879;SDS011;25887;30.194;-97.880;2023-07-13T08:13:24;5.97;;;1.27;;
38879;SDS011;25887;30.194;-97.880;2023-07-13T08:16:07;3.88;;;1.42;;
38879;SDS011;25887;30.194;-97.880;2023-07-13T08:18:33;9.23;;;1.60;;
38879;SDS011;25887;30.194;-97.880;2023-07-13T08:21:06;5.30;;;1.77;;
38879;SDS011;25887;30.194;-97.880;2023-07-13T08:23:33;6.10;;;1.67;;
38879;SDS011;25887;30.194;-97.880;2023-07-13T08:26:09;6.57;;;1.70;;
38879;SDS011;25887;30.194;-97.880;2023-07-13T08:28:35;12.80;;;1.80;;
38879;SDS011;25887;30.194;-97.880;2023-07-13T08:31:05;7.28;;;1.77;;
38879;SDS011;25887;30.194;-97.880;2023-07-13T08:33:34;8.25;;;1.70;;
38879;SDS011;25887;30.194;-97.880;2023-07-13T08:36:01;2.97;;;1.30;;
38879;SDS011;25887;30.194;-97.880;2023-07-13T08:38:27;8.20;;;1.92;;
38879;SDS011;25887;30.194;-97.880;2023-07-13T08:40:55;4.22;;;1.83;;
38879;SDS011;25887;30.194;-97.880;2023-07-13T08:43:27;5.80;;;1.40;;
38879;SDS011;25887;30.194;-97.880;2023-07-13T08:48:50;7.20;;;1.98;;
38879;SDS011;25887;30.194;-97.880;2023-07-13T08:51:27;11.98;;;1.83;;
38879;SDS011;25887;30.194;-97.880;2023-07-13T08:54:00;4.25;;;1.63;;
38879;SDS011;25887;30.194;-97.880;2023-07-13T08:56:31;9.10;;;1.67;;
38879;SDS011;25887;30.194;-97.880;2023-07-13T08:59:00;5.55;;;1.67;;
38879;SDS011;25887;30.194;-97.880;2023-07-13T11:16:47;8.10;;;2.08;;
38879;SDS011;25887;30.194;-97.880;2023-07-13T11:30:41;11.73;;;1.98;;
38879;SDS011;25887;30.194;-97.880;2023-07-13T12:12:28;12.07;;;2.60;;
38879;SDS011;25887;30.194;-97.880;2023-07-13T12:15:07;10.13;;;1.90;;
38879;SDS011;25887;30.194;-97.880;2023-07-13T12:17:37;6.85;;;2.40;;
38879;SDS011;25887;30.194;-97.880;2023-07-13T12:20:12;5.82;;;2.47;;
38879;SDS011;25887;30.194;-97.880;2023-07-13T12:25:54;6.32;;;2.20;;
38879;SDS011;25887;30.194;-97.880;2023-07-13T12:30:48;5.65;;;2.08;;
38879;SDS011;25887;30.194;-97.880;2023-07-13T12:33:15;5.80;;;1.88;;
38879;SDS011;25887;30.194;-97.880;2023-07-13T12:35:50;12.90;;;2.60;;
38879;SDS011;25887;30.194;-97.880;2023-07-13T12:38:18;16.10;;;2.70;;
38879;SDS011;25887;30.194;-97.880;2023-07-13T12:40:49;10.43;;;2.00;;
38879;SDS011;25887;30.194;-97.880;2023-07-13T12:43:17;8.88;;;2.65;;
38879;SDS011;25887;30.194;-97.880;2023-07-13T12:45:57;9.93;;;2.10;;
38879;SDS011;25887;30.194;-97.880;2023-07-13T12:48:27;5.03;;;2.20;;
38879;SDS011;25887;30.194;-97.880;2023-07-13T12:50:53;5.00;;;1.80;;
38879;SDS011;25887;30.194;-97.880;2023-07-13T12:53:23;3.50;;;1.85;;
38879;SDS011;25887;30.194;-97.880;2023-07-13T12:58:48;13.77;;;2.40;;
38879;SDS011;25887;30.194;-97.880;2023-07-13T13:01:21;8.88;;;2.45;;
38879;SDS011;25887;30.194;-97.880;2023-07-13T13:03:52;4.28;;;1.67;;
38879;SDS011;25887;30.194;-97.880;2023-07-13T13:06:22;8.85;;;2.40;;
38879;SDS011;25887;30.194;-97.880;2023-07-13T13:08:55;7.18;;;1.92;;
38879;SDS011;25887;30.194;-97.880;2023-07-13T13:11:31;9.80;;;2.50;;
38879;SDS011;25887;30.194;-97.880;2023-07-13T13:13:58;7.85;;;1.83;;
38879;SDS011;25887;30.194;-97.880;2023-07-13T13:16:32;3.15;;;1.50;;
38879;SDS011;25887;30.194;-97.880;2023-07-13T13:19:13;4.93;;;2.00;;
38879;SDS011;25887;30.194;-97.880;2023-07-13T13:21:42;7.85;;;1.98;;
38879;SDS011;25887;30.194;-97.880;2023-07-13T13:24:14;8.18;;;2.72;;
38879;SDS011;25887;30.194;-97.880;2023-07-13T13:26:42;11.38;;;2.53;;
38879;SDS011;25887;30.194;-97.880;2023-07-13T13:29:14;12.95;;;2.67;;
38879;SDS011;25887;30.194;-97.880;2023-07-13T13:31:45;6.72;;;2.30;;
38879;SDS011;25887;30.194;-97.880;2023-07-13T13:34:13;5.10;;;1.90;;
38879;SDS011;25887;30.194;-97.880;2023-07-13T13:36:41;9.35;;;2.38;;
38879;SDS011;25887;30.194;-97.880;2023-07-13T13:41:52;5.30;;;2.05;;
38879;SDS011;25887;30.194;-97.880;2023-07-13T13:44:19;11.70;;;2.47;;
38879;SDS011;25887;30.194;-97.880;2023-07-13T13:46:53;6.22;;;2.08;;
38879;SDS011;25887;30.194;-97.880;2023-07-13T13:49:22;7.38;;;2.70;;
38879;SDS011;25887;30.194;-97.880;2023-07-13T13:51:53;10.98;;;2.67;;
38879;SDS011;25887;30.194;-97.880;2023-07-13T13:54:20;4.90;;;1.65;;
38879;SDS011;25887;30.194;-97.880;2023-07-13T13:56:48;11.20;;;2.05;;
38879;SDS011;25887;30.194;-97.880;2023-07-13T13:59:16;9.07;;;2.00;;
38879;SDS011;25887;30.194;-97.880;2023-07-13T14:01:44;8.45;;;2.80;;
38879;SDS011;25887;30.194;-97.880;2023-07-13T14:04:17;5.60;;;2.20;;
38879;SDS011;25887;30.194;-97.880;2023-07-13T14:06:46;3.83;;;1.75;;
38879;SDS011;25887;30.194;-97.880;2023-07-13T14:09:16;8.10;;;2.20;;
38879;SDS011;25887;30.194;-97.880;2023-07-13T14:11:44;4.45;;;1.90;;
38879;SDS011;25887;30.194;-97.880;2023-07-13T14:14:14;5.22;;;2.47;;
38879;SDS011;25887;30.194;-97.880;2023-07-13T14:16:43;13.25;;;2.20;;
38879;SDS011;25887;30.194;-97.880;2023-07-13T14:19:11;7.57;;;2.00;;
38879;SDS011;25887;30.194;-97.880;2023-07-13T14:21:40;6.63;;;2.38;;
38879;SDS011;25887;30.194;-97.880;2023-07-13T14:24:08;8.05;;;2.60;;
38879;SDS011;25887;30.194;-97.880;2023-07-13T14:26:37;9.82;;;2.63;;
38879;SDS011;25887;30.194;-97.880;2023-07-13T14:29:12;5.57;;;2.10;;
38879;SDS011;25887;30.194;-97.880;2023-07-13T14:31:40;6.23;;;2.13;;
38879;SDS011;25887;30.194;-97.880;2023-07-13T14:34:07;7.85;;;2.33;;
38879;SDS011;25887;30.194;-97.880;2023-07-13T14:36:45;5.78;;;2.25;;
38879;SDS011;25887;30.194;-97.880;2023-07-13T14:39:18;8.27;;;2.20;;
38879;SDS011;25887;30.194;-97.880;2023-07-13T14:41:49;7.72;;;1.98;;
38879;SDS011;25887;30.194;-97.880;2023-07-13T14:44:20;2.80;;;1.65;;
38879;SDS011;25887;30.194;-97.880;2023-07-13T14:46:49;5.20;;;1.90;;
38879;SDS011;25887;30.194;-97.880;2023-07-13T14:49:21;8.20;;;2.30;;
38879;SDS011;25887;30.194;-97.880;2023-07-13T14:51:57;6.30;;;2.10;;
38879;SDS011;25887;30.194;-97.880;2023-07-13T14:54:25;5.43;;;1.85;;
38879;SDS011;25887;30.194;-97.880;2023-07-13T14:56:52;6.55;;;2.40;;
38879;SDS011;25887;30.194;-97.880;2023-07-13T14:59:33;8.85;;;2.40;;
38879;SDS011;25887;30.194;-97.880;2023-07-13T15:02:01;5.63;;;2.15;;
38879;SDS011;25887;30.194;-97.880;2023-07-13T15:04:29;4.13;;;1.88;;
38879;SDS011;25887;30.194;-97.880;2023-07-13T15:07:00;5.15;;;1.90;;
38879;SDS011;25887;30.194;-97.880;2023-07-13T15:09:28;3.50;;;1.95;;
38879;SDS011;25887;30.194;-97.880;2023-07-13T15:11:58;4.40;;;1.70;;
38879;SDS011;25887;30.194;-97.880;2023-07-13T15:14:25;7.55;;;2.00;;
38879;SDS011;25887;30.194;-97.880;2023-07-13T15:16:53;4.97;;;2.00;;
38879;SDS011;25887;30.194;-97.880;2023-07-13T15:19:21;6.07;;;2.10;;
38879;SDS011;25887;30.194;-97.880;2023-07-13T15:21:49;6.53;;;1.83;;
38879;SDS011;25887;30.194;-97.880;2023-07-13T15:24:17;5.22;;;2.33;;
38879;SDS011;25887;30.194;-97.880;2023-07-13T15:26:43;6.78;;;2.30;;
38879;SDS011;25887;30.194;-97.880;2023-07-13T15:29:29;10.00;;;2.22;;
38879;SDS011;25887;30.194;-97.880;2023-07-13T15:31:55;4.22;;;1.98;;
38879;SDS011;25887;30.194;-97.880;2023-07-13T15:34:23;5.07;;;2.20;;
38879;SDS011;25887;30.194;-97.880;2023-07-13T15:36:51;4.63;;;1.95;;
38879;SDS011;25887;30.194;-97.880;2023-07-13T15:39:17;6.55;;;2.10;;
38879;SDS011;25887;30.194;-97.880;2023-07-13T15:41:44;7.00;;;2.25;;
38879;SDS011;25887;30.194;-97.880;2023-07-13T15:44:27;6.30;;;2.20;;
38879;SDS011;25887;30.194;-97.880;2023-07-13T15:46:55;8.98;;;1.90;;
38879;SDS011;25887;30.194;-97.880;2023-07-13T15:49:29;4.68;;;1.90;;
38879;SDS011;25887;30.194;-97.880;2023-07-13T15:51:56;2.67;;;1.67;;
38879;SDS011;25887;30.194;-97.880;2023-07-13T15:54:22;5.00;;;1.90;;
38879;SDS011;25887;30.194;-97.880;2023-07-13T15:56:53;8.75;;;2.70;;
38879;SDS011;25887;30.194;-97.880;2023-07-13T15:59:21;2.80;;;1.85;;
38879;SDS011;25887;30.194;-97.880;2023-07-13T16:01:48;4.78;;;2.00;;
38879;SDS011;25887;30.194;-97.880;2023-07-13T16:04:15;6.43;;;1.92;;
38879;SDS011;25887;30.194;-97.880;2023-07-13T16:06:42;3.97;;;1.95;;
38879;SDS011;25887;30.194;-97.880;2023-07-13T16:09:16;4.55;;;1.77;;
38879;SDS011;25887;30.194;-97.880;2023-07-13T16:11:47;4.10;;;1.58;;
38879;SDS011;25887;30.194;-97.880;2023-07-13T16:14:14;6.40;;;1.77;;
38879;SDS011;25887;30.194;-97.880;2023-07-13T16:19:45;5.65;;;1.65;;
38879;SDS011;25887;30.194;-97.880;2023-07-13T16:22:16;6.43;;;2.17;;
38879;SDS011;25887;30.194;-97.880;2023-07-13T16:25:08;5.68;;;2.10;;
38879;SDS011;25887;30.194;-97.880;2023-07-13T16:27:48;6.15;;;1.70;;
38879;SDS011;25887;30.194;-97.880;2023-07-13T16:30:16;5.22;;;1.75;;
38879;SDS011;25887;30.194;-97.880;2023-07-13T16:32:48;2.97;;;1.83;;
38879;SDS011;25887;30.194;-97.880;2023-07-13T16:35:18;3.80;;;1.70;;
38879;SDS011;25887;30.194;-97.880;2023-07-13T16:40:50;12.05;;;1.70;;
38879;SDS011;25887;30.194;-97.880;2023-07-13T16:43:17;6.95;;;1.88;;
38879;SDS011;25887;30.194;-97.880;2023-07-13T16:45:46;5.45;;;2.00;;
38879;SDS011;25887;30.194;-97.880;2023-07-13T16:48:19;2.75;;;1.60;;
38879;SDS011;25887;30.194;-97.880;2023-07-13T16:50:56;5.00;;;1.80;;
38879;SDS011;25887;30.194;-97.880;2023-07-13T16:53:25;4.47;;;1.50;;
38879;SDS011;25887;30.194;-97.880;2023-07-13T16:55:57;5.40;;;2.05;;
38879;SDS011;25887;30.194;-97.880;2023-07-13T16:58:39;6.50;;;1.80;;
38879;SDS011;25887;30.194;-97.880;2023-07-13T17:01:05;6.00;;;2.00;;
38879;SDS011;25887;30.194;-97.880;2023-07-13T17:06:49;5.78;;;2.30;;
38879;SDS011;25887;30.194;-97.880;2023-07-13T17:09:18;5.25;;;1.60;;
38879;SDS011;25887;30.194;-97.880;2023-07-13T17:11:45;5.95;;;1.95;;
38879;SDS011;25887;30.194;-97.880;2023-07-13T17:14:13;7.60;;;1.83;;
38879;SDS011;25887;30.194;-97.880;2023-07-13T17:16:47;6.25;;;2.13;;
38879;SDS011;25887;30.194;-97.880;2023-07-13T17:19:28;4.63;;;1.50;;
38879;SDS011;25887;30.194;-97.880;2023-07-13T17:21:56;7.60;;;1.83;;
38879;SDS011;25887;30.194;-97.880;2023-07-13T17:24:26;6.90;;;2.33;;
38879;SDS011;25887;30.194;-97.880;2023-07-13T17:26:54;3.92;;;1.90;;
38879;SDS011;25887;30.194;-97.880;2023-07-13T17:29:22;5.03;;;1.85;;
38879;SDS011;25887;30.194;-97.880;2023-07-13T17:31:49;7.18;;;1.85;;
38879;SDS011;25887;30.194;-97.880;2023-07-13T17:34:18;4.85;;;1.67;;
38879;SDS011;25887;30.194;-97.880;2023-07-13T17:36:45;7.53;;;2.35;;
38879;SDS011;25887;30.194;-97.880;2023-07-13T17:39:16;4.78;;;1.70;;
38879;SDS011;25887;30.194;-97.880;2023-07-13T17:41:51;2.42;;;1.60;;
38879;SDS011;25887;30.194;-97.880;2023-07-13T17:44:18;7.13;;;2.13;;
38879;SDS011;25887;30.194;-97.880;2023-07-13T17:46:46;9.35;;;2.00;;
38879;SDS011;25887;30.194;-97.880;2023-07-13T17:49:18;3.67;;;1.50;;
38879;SDS011;25887;30.194;-97.880;2023-07-13T17:52:04;6.28;;;1.80;;
38879;SDS011;25887;30.194;-97.880;2023-07-13T17:54:31;5.63;;;1.58;;
38879;SDS011;25887;30.194;-97.880;2023-07-13T17:56:58;3.72;;;1.80;;
38879;SDS011;25887;30.194;-97.880;2023-07-13T17:59:24;3.15;;;1.73;;
38879;SDS011;25887;30.194;-97.880;2023-07-13T18:01:50;3.35;;;1.48;;
38879;SDS011;25887;30.194;-97.880;2023-07-13T18:04:18;3.42;;;1.50;;
38879;SDS011;25887;30.194;-97.880;2023-07-13T18:06:49;4.80;;;1.80;;
38879;SDS011;25887;30.194;-97.880;2023-07-13T18:09:25;3.55;;;1.45;;
38879;SDS011;25887;30.194;-97.880;2023-07-13T18:11:52;5.43;;;1.88;;
38879;SDS011;25887;30.194;-97.880;2023-07-13T18:14:20;3.72;;;1.40;;
38879;SDS011;25887;30.194;-97.880;2023-07-13T18:16:55;6.60;;;1.40;;
38879;SDS011;25887;30.194;-97.880;2023-07-13T18:21:59;5.90;;;1.90;;